YYRK weather

York Airport
Western Australia, Australia

Public forecast

Using degrees Celsius for public forecast. Weather courtesy of forecast.io.

Closest aviation weather report (METAR) to York Airport

Closest report is RAAF Base Pearce, 41.6 nm (77.0 km) WNW. Retrieved 2019/10/21 14:30 UTC (12 minutes ago):

YPEA 211430Z AUTO 00000KT 9999 // NCD 13/11 Q1020

Closest aviation forecast (TAF) to York Airport

Closest forecast is RAAF Base Pearce, 41.6 nm (77.0 km) WNW. Retrieved 2019/10/21 12:00 UTC (3 hours ago):

TAF YPEA 211103Z 2112/2206 23010KT CAVOK FM211500 17005KT 9999 SCT015 FM212300 12006KT 9999 FEW020 FM220300 24012KT CAVOK